sensor_id;sensor_type;location;lat;lon;timestamp;P1;durP1;ratioP1;P2;durP2;ratioP2
15931;SDS011;8065;49.520;11.284;2022-08-24T00:00:03;3.33;;;3.00;;
15931;SDS011;8065;49.520;11.284;2022-08-24T00:02:32;3.40;;;3.10;;
15931;SDS011;8065;49.520;11.284;2022-08-24T00:04:58;3.40;;;3.10;;
15931;SDS011;8065;49.520;11.284;2022-08-24T00:07:25;3.80;;;3.50;;
15931;SDS011;8065;49.520;11.284;2022-08-24T00:09:52;3.30;;;3.00;;
15931;SDS011;8065;49.520;11.284;2022-08-24T00:12:18;3.77;;;3.30;;
15931;SDS011;8065;49.520;11.284;2022-08-24T00:14:46;3.90;;;3.53;;
15931;SDS011;8065;49.520;11.284;2022-08-24T00:17:13;3.47;;;3.17;;
15931;SDS011;8065;49.520;11.284;2022-08-24T00:19:39;3.60;;;3.30;;
15931;SDS011;8065;49.520;11.284;2022-08-24T00:22:06;3.73;;;3.30;;
15931;SDS011;8065;49.520;11.284;2022-08-24T00:24:34;3.40;;;3.07;;
15931;SDS011;8065;49.520;11.284;2022-08-24T00:27:00;3.50;;;3.30;;
15931;SDS011;8065;49.520;11.284;2022-08-24T00:29:27;4.60;;;3.27;;
15931;SDS011;8065;49.520;11.284;2022-08-24T00:31:55;6.00;;;3.50;;
15931;SDS011;8065;49.520;11.284;2022-08-24T00:34:21;4.00;;;3.47;;
15931;SDS011;8065;49.520;11.284;2022-08-24T00:36:48;3.80;;;3.50;;
15931;SDS011;8065;49.520;11.284;2022-08-24T00:39:14;4.40;;;3.77;;
15931;SDS011;8065;49.520;11.284;2022-08-24T00:41:42;3.90;;;3.60;;
15931;SDS011;8065;49.520;11.284;2022-08-24T00:44:10;3.87;;;3.57;;
15931;SDS011;8065;49.520;11.284;2022-08-24T00:46:41;3.47;;;3.23;;
15931;SDS011;8065;49.520;11.284;2022-08-24T00:49:12;4.53;;;3.80;;
15931;SDS011;8065;49.520;11.284;2022-08-24T00:51:45;4.27;;;3.73;;
15931;SDS011;8065;49.520;11.284;2022-08-24T00:54:19;4.73;;;3.53;;
15931;SDS011;8065;49.520;11.284;2022-08-24T00:56:57;4.20;;;3.80;;
15931;SDS011;8065;49.520;11.284;2022-08-24T00:59:28;5.07;;;3.87;;
15931;SDS011;8065;49.520;11.284;2022-08-24T01:01:57;3.77;;;3.47;;
15931;SDS011;8065;49.520;11.284;2022-08-24T01:04:30;3.93;;;3.60;;
15931;SDS011;8065;49.520;11.284;2022-08-24T01:07:00;5.17;;;3.97;;
15931;SDS011;8065;49.520;11.284;2022-08-24T01:09:27;5.47;;;3.77;;
15931;SDS011;8065;49.520;11.284;2022-08-24T01:11:53;3.70;;;3.40;;
15931;SDS011;8065;49.520;11.284;2022-08-24T01:14:21;6.13;;;3.77;;
15931;SDS011;8065;49.520;11.284;2022-08-24T01:16:48;4.10;;;3.70;;
15931;SDS011;8065;49.520;11.284;2022-08-24T01:19:36;7.63;;;3.97;;
15931;SDS011;8065;49.520;11.284;2022-08-24T01:22:10;4.23;;;3.90;;
15931;SDS011;8065;49.520;11.284;2022-08-24T01:24:48;4.37;;;3.97;;
15931;SDS011;8065;49.520;11.284;2022-08-24T01:27:15;4.30;;;3.90;;
15931;SDS011;8065;49.520;11.284;2022-08-24T01:29:42;4.00;;;3.63;;
15931;SDS011;8065;49.520;11.284;2022-08-24T01:32:10;4.23;;;3.77;;
15931;SDS011;8065;49.520;11.284;2022-08-24T01:34:37;4.10;;;3.70;;
15931;SDS011;8065;49.520;11.284;2022-08-24T01:37:04;4.40;;;3.80;;
15931;SDS011;8065;49.520;11.284;2022-08-24T01:39:35;4.40;;;4.03;;
15931;SDS011;8065;49.520;11.284;2022-08-24T01:42:05;4.30;;;4.00;;
15931;SDS011;8065;49.520;11.284;2022-08-24T01:44:33;4.43;;;4.03;;
15931;SDS011;8065;49.520;11.284;2022-08-24T01:47:01;4.97;;;3.70;;
15931;SDS011;8065;49.520;11.284;2022-08-24T01:49:30;4.27;;;3.87;;
15931;SDS011;8065;49.520;11.284;2022-08-24T01:51:58;6.03;;;3.87;;
15931;SDS011;8065;49.520;11.284;2022-08-24T01:54:25;4.27;;;3.83;;
15931;SDS011;8065;49.520;11.284;2022-08-24T01:56:52;4.90;;;4.17;;
15931;SDS011;8065;49.520;11.284;2022-08-24T01:59:20;4.67;;;3.80;;
15931;SDS011;8065;49.520;11.284;2022-08-24T02:01:49;4.17;;;3.77;;
15931;SDS011;8065;49.520;11.284;2022-08-24T02:04:20;6.10;;;4.30;;
15931;SDS011;8065;49.520;11.284;2022-08-24T02:06:47;5.83;;;4.10;;
15931;SDS011;8065;49.520;11.284;2022-08-24T02:09:13;5.37;;;3.90;;
15931;SDS011;8065;49.520;11.284;2022-08-24T02:11:40;4.40;;;4.00;;
15931;SDS011;8065;49.520;11.284;2022-08-24T02:14:08;4.30;;;4.00;;
15931;SDS011;8065;49.520;11.284;2022-08-24T02:16:36;5.20;;;4.70;;
15931;SDS011;8065;49.520;11.284;2022-08-24T02:19:03;4.97;;;4.33;;
15931;SDS011;8065;49.520;11.284;2022-08-24T02:21:29;5.30;;;4.33;;
15931;SDS011;8065;49.520;11.284;2022-08-24T02:23:56;4.40;;;4.00;;
15931;SDS011;8065;49.520;11.284;2022-08-24T02:26:23;5.37;;;4.37;;
15931;SDS011;8065;49.520;11.284;2022-08-24T02:28:49;5.10;;;4.63;;
15931;SDS011;8065;49.520;11.284;2022-08-24T02:31:16;4.67;;;4.20;;
15931;SDS011;8065;49.520;11.284;2022-08-24T02:33:44;4.83;;;4.10;;
15931;SDS011;8065;49.520;11.284;2022-08-24T02:36:10;4.43;;;4.13;;
15931;SDS011;8065;49.520;11.284;2022-08-24T02:38:38;5.30;;;4.33;;
15931;SDS011;8065;49.520;11.284;2022-08-24T02:41:05;5.53;;;4.07;;
15931;SDS011;8065;49.520;11.284;2022-08-24T02:43:32;7.40;;;4.43;;
15931;SDS011;8065;49.520;11.284;2022-08-24T02:45:58;6.73;;;4.17;;
15931;SDS011;8065;49.520;11.284;2022-08-24T02:48:25;4.63;;;4.23;;
15931;SDS011;8065;49.520;11.284;2022-08-24T02:50:53;4.57;;;4.17;;
15931;SDS011;8065;49.520;11.284;2022-08-24T02:53:20;5.10;;;4.40;;
15931;SDS011;8065;49.520;11.284;2022-08-24T02:55:48;5.53;;;4.53;;
15931;SDS011;8065;49.520;11.284;2022-08-24T02:58:15;4.80;;;4.50;;
15931;SDS011;8065;49.520;11.284;2022-08-24T03:00:43;4.43;;;3.93;;
15931;SDS011;8065;49.520;11.284;2022-08-24T03:03:11;6.80;;;4.73;;
15931;SDS011;8065;49.520;11.284;2022-08-24T03:05:38;5.40;;;4.90;;
15931;SDS011;8065;49.520;11.284;2022-08-24T03:08:07;4.87;;;4.33;;
15931;SDS011;8065;49.520;11.284;2022-08-24T03:10:33;4.00;;;3.70;;
15931;SDS011;8065;49.520;11.284;2022-08-24T03:13:00;4.50;;;4.10;;
15931;SDS011;8065;49.520;11.284;2022-08-24T03:15:27;5.13;;;4.40;;
15931;SDS011;8065;49.520;11.284;2022-08-24T03:17:54;5.03;;;4.60;;
15931;SDS011;8065;49.520;11.284;2022-08-24T03:20:21;6.20;;;4.30;;
15931;SDS011;8065;49.520;11.284;2022-08-24T03:22:48;6.43;;;4.93;;
15931;SDS011;8065;49.520;11.284;2022-08-24T03:25:17;5.77;;;4.80;;
15931;SDS011;8065;49.520;11.284;2022-08-24T03:27:45;5.20;;;4.70;;
15931;SDS011;8065;49.520;11.284;2022-08-24T03:30:12;5.03;;;4.53;;
15931;SDS011;8065;49.520;11.284;2022-08-24T03:32:40;4.83;;;4.50;;
15931;SDS011;8065;49.520;11.284;2022-08-24T03:35:08;5.20;;;4.70;;
15931;SDS011;8065;49.520;11.284;2022-08-24T03:37:36;6.47;;;4.87;;
15931;SDS011;8065;49.520;11.284;2022-08-24T03:40:04;7.33;;;4.77;;
15931;SDS011;8065;49.520;11.284;2022-08-24T03:42:33;5.50;;;4.70;;
15931;SDS011;8065;49.520;11.284;2022-08-24T03:45:00;5.50;;;4.80;;
15931;SDS011;8065;49.520;11.284;2022-08-24T03:47:26;5.60;;;5.10;;
15931;SDS011;8065;49.520;11.284;2022-08-24T03:49:53;6.07;;;4.93;;
15931;SDS011;8065;49.520;11.284;2022-08-24T03:52:20;6.47;;;4.80;;
15931;SDS011;8065;49.520;11.284;2022-08-24T03:54:47;6.67;;;5.27;;
15931;SDS011;8065;49.520;11.284;2022-08-24T03:57:14;5.23;;;4.80;;
15931;SDS011;8065;49.520;11.284;2022-08-24T03:59:41;5.80;;;5.13;;
15931;SDS011;8065;49.520;11.284;2022-08-24T04:02:08;6.50;;;5.83;;
15931;SDS011;8065;49.520;11.284;2022-08-24T04:04:34;6.97;;;5.40;;
15931;SDS011;8065;49.520;11.284;2022-08-24T04:07:01;6.30;;;5.23;;
15931;SDS011;8065;49.520;11.284;2022-08-24T04:09:28;5.77;;;5.07;;
15931;SDS011;8065;49.520;11.284;2022-08-24T04:11:55;5.00;;;4.60;;
15931;SDS011;8065;49.520;11.284;2022-08-24T04:14:21;5.90;;;5.30;;
15931;SDS011;8065;49.520;11.284;2022-08-24T04:16:49;5.77;;;5.27;;
15931;SDS011;8065;49.520;11.284;2022-08-24T04:19:16;5.43;;;4.97;;
15931;SDS011;8065;49.520;11.284;2022-08-24T04:21:42;6.07;;;5.47;;
15931;SDS011;8065;49.520;11.284;2022-08-24T04:24:09;6.00;;;5.30;;
15931;SDS011;8065;49.520;11.284;2022-08-24T04:26:37;6.10;;;5.60;;
15931;SDS011;8065;49.520;11.284;2022-08-24T04:29:05;7.23;;;6.00;;
15931;SDS011;8065;49.520;11.284;2022-08-24T04:31:34;6.57;;;5.43;;
15931;SDS011;8065;49.520;11.284;2022-08-24T04:34:02;6.03;;;5.27;;
15931;SDS011;8065;49.520;11.284;2022-08-24T04:36:29;7.27;;;5.93;;
15931;SDS011;8065;49.520;11.284;2022-08-24T04:38:56;6.40;;;5.67;;
15931;SDS011;8065;49.520;11.284;2022-08-24T04:41:23;7.07;;;5.70;;
15931;SDS011;8065;49.520;11.284;2022-08-24T04:43:50;5.77;;;5.17;;
15931;SDS011;8065;49.520;11.284;2022-08-24T04:46:17;5.67;;;5.17;;
15931;SDS011;8065;49.520;11.284;2022-08-24T04:48:45;5.97;;;5.47;;
15931;SDS011;8065;49.520;11.284;2022-08-24T04:51:15;5.83;;;5.33;;
15931;SDS011;8065;49.520;11.284;2022-08-24T04:53:43;6.63;;;5.97;;
15931;SDS011;8065;49.520;11.284;2022-08-24T04:56:11;5.83;;;5.33;;
15931;SDS011;8065;49.520;11.284;2022-08-24T04:58:40;8.63;;;5.03;;
15931;SDS011;8065;49.520;11.284;2022-08-24T05:01:07;5.57;;;5.07;;
15931;SDS011;8065;49.520;11.284;2022-08-24T05:03:34;6.27;;;5.70;;
15931;SDS011;8065;49.520;11.284;2022-08-24T05:06:01;8.90;;;6.43;;
15931;SDS011;8065;49.520;11.284;2022-08-24T05:08:28;5.83;;;5.43;;
15931;SDS011;8065;49.520;11.284;2022-08-24T05:10:55;6.70;;;6.17;;
15931;SDS011;8065;49.520;11.284;2022-08-24T05:13:22;8.53;;;5.90;;
15931;SDS011;8065;49.520;11.284;2022-08-24T05:15:48;6.00;;;5.50;;
15931;SDS011;8065;49.520;11.284;2022-08-24T05:18:15;6.60;;;6.00;;
15931;SDS011;8065;49.520;11.284;2022-08-24T05:20:43;6.30;;;5.70;;
15931;SDS011;8065;49.520;11.284;2022-08-24T05:23:11;8.17;;;6.33;;
15931;SDS011;8065;49.520;11.284;2022-08-24T05:25:39;7.10;;;5.67;;
15931;SDS011;8065;49.520;11.284;2022-08-24T05:28:07;5.97;;;5.47;;
15931;SDS011;8065;49.520;11.284;2022-08-24T05:30:33;6.60;;;5.53;;
15931;SDS011;8065;49.520;11.284;2022-08-24T05:33:01;6.70;;;6.00;;
15931;SDS011;8065;49.520;11.284;2022-08-24T05:35:27;6.30;;;5.67;;
15931;SDS011;8065;49.520;11.284;2022-08-24T05:37:54;6.60;;;6.00;;
15931;SDS011;8065;49.520;11.284;2022-08-24T05:40:21;5.97;;;5.33;;
15931;SDS011;8065;49.520;11.284;2022-08-24T05:42:49;6.83;;;6.17;;
15931;SDS011;8065;49.520;11.284;2022-08-24T05:45:16;6.13;;;5.63;;
15931;SDS011;8065;49.520;11.284;2022-08-24T05:47:42;8.27;;;5.80;;
15931;SDS011;8065;49.520;11.284;2022-08-24T05:50:09;8.73;;;6.30;;
15931;SDS011;8065;49.520;11.284;2022-08-24T05:52:36;9.80;;;6.50;;
15931;SDS011;8065;49.520;11.284;2022-08-24T05:55:03;7.47;;;6.77;;
15931;SDS011;8065;49.520;11.284;2022-08-24T05:57:31;6.43;;;5.83;;
15931;SDS011;8065;49.520;11.284;2022-08-24T06:00:02;6.17;;;5.57;;
15931;SDS011;8065;49.520;11.284;2022-08-24T06:02:31;7.20;;;6.50;;
15931;SDS011;8065;49.520;11.284;2022-08-24T06:04:57;6.73;;;6.10;;
15931;SDS011;8065;49.520;11.284;2022-08-24T06:07:24;6.50;;;5.90;;
15931;SDS011;8065;49.520;11.284;2022-08-24T06:09:50;6.80;;;6.10;;
15931;SDS011;8065;49.520;11.284;2022-08-24T06:12:18;8.77;;;6.17;;
15931;SDS011;8065;49.520;11.284;2022-08-24T06:14:44;6.03;;;5.43;;
15931;SDS011;8065;49.520;11.284;2022-08-24T06:17:13;6.63;;;5.90;;
15931;SDS011;8065;49.520;11.284;2022-08-24T06:19:39;7.40;;;6.43;;
15931;SDS011;8065;49.520;11.284;2022-08-24T06:22:07;8.80;;;6.97;;
15931;SDS011;8065;49.520;11.284;2022-08-24T06:24:34;7.47;;;6.40;;
15931;SDS011;8065;49.520;11.284;2022-08-24T06:27:19;7.47;;;6.63;;
15931;SDS011;8065;49.520;11.284;2022-08-24T06:29:46;10.73;;;6.97;;
15931;SDS011;8065;49.520;11.284;2022-08-24T06:32:14;6.50;;;5.83;;
15931;SDS011;8065;49.520;11.284;2022-08-24T06:34:42;8.33;;;7.37;;
15931;SDS011;8065;49.520;11.284;2022-08-24T06:37:09;7.27;;;6.63;;
15931;SDS011;8065;49.520;11.284;2022-08-24T06:39:35;7.57;;;6.80;;
15931;SDS011;8065;49.520;11.284;2022-08-24T06:42:02;7.57;;;6.80;;
15931;SDS011;8065;49.520;11.284;2022-08-24T06:44:29;7.00;;;6.40;;
15931;SDS011;8065;49.520;11.284;2022-08-24T06:46:55;6.87;;;5.80;;
15931;SDS011;8065;49.520;11.284;2022-08-24T06:49:24;7.30;;;6.30;;
15931;SDS011;8065;49.520;11.284;2022-08-24T06:51:50;6.80;;;6.17;;
15931;SDS011;8065;49.520;11.284;2022-08-24T06:54:17;7.83;;;6.43;;
15931;SDS011;8065;49.520;11.284;2022-08-24T06:56:44;6.87;;;6.17;;
15931;SDS011;8065;49.520;11.284;2022-08-24T06:59:11;7.13;;;6.43;;
15931;SDS011;8065;49.520;11.284;2022-08-24T07:01:38;6.83;;;6.20;;
15931;SDS011;8065;49.520;11.284;2022-08-24T07:04:04;6.40;;;5.80;;
15931;SDS011;8065;49.520;11.284;2022-08-24T07:06:33;6.47;;;5.63;;
15931;SDS011;8065;49.520;11.284;2022-08-24T07:09:00;6.37;;;5.77;;
15931;SDS011;8065;49.520;11.284;2022-08-24T07:11:26;7.07;;;6.23;;
15931;SDS011;8065;49.520;11.284;2022-08-24T07:13:53;6.03;;;5.63;;
15931;SDS011;8065;49.520;11.284;2022-08-24T07:16:20;6.87;;;6.17;;
15931;SDS011;8065;49.520;11.284;2022-08-24T07:18:46;7.33;;;6.23;;
15931;SDS011;8065;49.520;11.284;2022-08-24T07:21:13;6.50;;;5.90;;
15931;SDS011;8065;49.520;11.284;2022-08-24T07:23:44;6.90;;;6.20;;
15931;SDS011;8065;49.520;11.284;2022-08-24T07:26:12;6.27;;;5.70;;
15931;SDS011;8065;49.520;11.284;2022-08-24T07:28:40;6.33;;;5.70;;
15931;SDS011;8065;49.520;11.284;2022-08-24T07:31:06;5.93;;;5.33;;
15931;SDS011;8065;49.520;11.284;2022-08-24T07:33:34;6.43;;;5.73;;
15931;SDS011;8065;49.520;11.284;2022-08-24T07:36:01;6.13;;;5.00;;
15931;SDS011;8065;49.520;11.284;2022-08-24T07:38:28;6.40;;;5.50;;
15931;SDS011;8065;49.520;11.284;2022-08-24T07:40:56;5.97;;;5.50;;
15931;SDS011;8065;49.520;11.284;2022-08-24T07:43:24;5.40;;;4.93;;
15931;SDS011;8065;49.520;11.284;2022-08-24T07:45:50;5.40;;;4.93;;
15931;SDS011;8065;49.520;11.284;2022-08-24T07:48:17;6.47;;;5.10;;
15931;SDS011;8065;49.520;11.284;2022-08-24T07:50:44;5.40;;;4.90;;
15931;SDS011;8065;49.520;11.284;2022-08-24T07:53:11;5.73;;;4.80;;
15931;SDS011;8065;49.520;11.284;2022-08-24T07:55:37;6.23;;;5.03;;
15931;SDS011;8065;49.520;11.284;2022-08-24T07:58:05;6.80;;;5.17;;
15931;SDS011;8065;49.520;11.284;2022-08-24T08:00:32;5.97;;;5.10;;
15931;SDS011;8065;49.520;11.284;2022-08-24T08:02:59;7.10;;;4.57;;
15931;SDS011;8065;49.520;11.284;2022-08-24T08:05:28;5.80;;;5.20;;
15931;SDS011;8065;49.520;11.284;2022-08-24T08:07:55;5.13;;;4.63;;
15931;SDS011;8065;49.520;11.284;2022-08-24T08:10:21;6.40;;;5.20;;
15931;SDS011;8065;49.520;11.284;2022-08-24T08:12:48;6.43;;;5.10;;
15931;SDS011;8065;49.520;11.284;2022-08-24T08:15:16;8.47;;;5.90;;
15931;SDS011;8065;49.520;11.284;2022-08-24T08:17:43;6.17;;;5.53;;
15931;SDS011;8065;49.520;11.284;2022-08-24T08:20:11;6.43;;;5.77;;
15931;SDS011;8065;49.520;11.284;2022-08-24T08:22:37;7.00;;;5.60;;
15931;SDS011;8065;49.520;11.284;2022-08-24T08:25:21;6.20;;;5.60;;
15931;SDS011;8065;49.520;11.284;2022-08-24T08:27:48;5.50;;;4.87;;
15931;SDS011;8065;49.520;11.284;2022-08-24T08:30:14;5.67;;;5.07;;
15931;SDS011;8065;49.520;11.284;2022-08-24T08:32:42;6.97;;;5.97;;
15931;SDS011;8065;49.520;11.284;2022-08-24T08:35:09;6.20;;;5.60;;
15931;SDS011;8065;49.520;11.284;2022-08-24T08:37:35;6.17;;;5.60;;
15931;SDS011;8065;49.520;11.284;2022-08-24T08:40:03;6.20;;;5.60;;
15931;SDS011;8065;49.520;11.284;2022-08-24T08:42:38;6.67;;;5.80;;
15931;SDS011;8065;49.520;11.284;2022-08-24T08:45:25;8.43;;;6.77;;
15931;SDS011;8065;49.520;11.284;2022-08-24T08:48:20;7.40;;;6.70;;
15931;SDS011;8065;49.520;11.284;2022-08-24T08:51:20;10.37;;;7.20;;
15931;SDS011;8065;49.520;11.284;2022-08-24T08:54:14;7.17;;;5.80;;
15931;SDS011;8065;49.520;11.284;2022-08-24T08:57:08;6.63;;;6.03;;
15931;SDS011;8065;49.520;11.284;2022-08-24T08:59:48;9.77;;;6.67;;
15931;SDS011;8065;49.520;11.284;2022-08-24T09:02:31;9.03;;;6.10;;
15931;SDS011;8065;49.520;11.284;2022-08-24T09:05:22;6.67;;;5.80;;
15931;SDS011;8065;49.520;11.284;2022-08-24T09:08:05;5.70;;;5.17;;
15931;SDS011;8065;49.520;11.284;2022-08-24T09:10:44;6.13;;;5.43;;
15931;SDS011;8065;49.520;11.284;2022-08-24T09:13:41;6.00;;;5.40;;
15931;SDS011;8065;49.520;11.284;2022-08-24T09:16:25;5.43;;;4.93;;
15931;SDS011;8065;49.520;11.284;2022-08-24T09:19:09;4.80;;;4.40;;
15931;SDS011;8065;49.520;11.284;2022-08-24T09:21:57;5.20;;;4.70;;
15931;SDS011;8065;49.520;11.284;2022-08-24T09:24:39;4.47;;;4.17;;
15931;SDS011;8065;49.520;11.284;2022-08-24T09:27:18;3.60;;;3.40;;
15931;SDS011;8065;49.520;11.284;2022-08-24T09:29:58;3.93;;;3.57;;
15931;SDS011;8065;49.520;11.284;2022-08-24T09:32:36;5.73;;;4.27;;
15931;SDS011;8065;49.520;11.284;2022-08-24T09:35:13;4.10;;;3.80;;
15931;SDS011;8065;49.520;11.284;2022-08-24T09:37:52;4.03;;;3.73;;
15931;SDS011;8065;49.520;11.284;2022-08-24T09:43:25;3.83;;;3.53;;
15931;SDS011;8065;49.520;11.284;2022-08-24T09:46:31;4.03;;;3.73;;
15931;SDS011;8065;49.520;11.284;2022-08-24T09:49:24;3.97;;;3.57;;
15931;SDS011;8065;49.520;11.284;2022-08-24T09:52:12;3.60;;;3.30;;
15931;SDS011;8065;49.520;11.284;2022-08-24T09:55:07;3.77;;;3.53;;
15931;SDS011;8065;49.520;11.284;2022-08-24T09:58:02;2.90;;;2.70;;
15931;SDS011;8065;49.520;11.284;2022-08-24T10:00:40;3.57;;;3.27;;
15931;SDS011;8065;49.520;11.284;2022-08-24T10:03:21;5.27;;;3.30;;
15931;SDS011;8065;49.520;11.284;2022-08-24T10:06:02;4.23;;;3.83;;
15931;SDS011;8065;49.520;11.284;2022-08-24T10:08:47;4.10;;;3.70;;
15931;SDS011;8065;49.520;11.284;2022-08-24T10:11:34;3.80;;;3.50;;
15931;SDS011;8065;49.520;11.284;2022-08-24T10:14:16;4.50;;;2.90;;
15931;SDS011;8065;49.520;11.284;2022-08-24T10:16:56;3.13;;;2.93;;
15931;SDS011;8065;49.520;11.284;2022-08-24T10:19:37;3.97;;;3.43;;
15931;SDS011;8065;49.520;11.284;2022-08-24T10:22:16;3.40;;;3.20;;
15931;SDS011;8065;49.520;11.284;2022-08-24T10:25:05;4.00;;;3.70;;
15931;SDS011;8065;49.520;11.284;2022-08-24T10:27:48;3.40;;;3.20;;
15931;SDS011;8065;49.520;11.284;2022-08-24T10:33:24;3.67;;;3.37;;
15931;SDS011;8065;49.520;11.284;2022-08-24T10:36:00;4.20;;;3.80;;
15931;SDS011;8065;49.520;11.284;2022-08-24T10:38:49;3.80;;;3.50;;
15931;SDS011;8065;49.520;11.284;2022-08-24T10:45:17;3.83;;;3.40;;
15931;SDS011;8065;49.520;11.284;2022-08-24T10:48:02;3.60;;;3.30;;
15931;SDS011;8065;49.520;11.284;2022-08-24T10:50:45;3.60;;;3.30;;
15931;SDS011;8065;49.520;11.284;2022-08-24T10:53:23;4.00;;;3.70;;
15931;SDS011;8065;49.520;11.284;2022-08-24T10:55:58;4.33;;;3.73;;
15931;SDS011;8065;49.520;11.284;2022-08-24T10:58:36;5.33;;;3.90;;
15931;SDS011;8065;49.520;11.284;2022-08-24T11:01:22;3.63;;;3.40;;
15931;SDS011;8065;49.520;11.284;2022-08-24T11:03:54;3.80;;;3.50;;
15931;SDS011;8065;49.520;11.284;2022-08-24T11:06:24;4.37;;;3.97;;
15931;SDS011;8065;49.520;11.284;2022-08-24T11:08:56;3.90;;;3.60;;
15931;SDS011;8065;49.520;11.284;2022-08-24T11:11:27;4.27;;;3.97;;
15931;SDS011;8065;49.520;11.284;2022-08-24T11:13:57;4.03;;;3.63;;
15931;SDS011;8065;49.520;11.284;2022-08-24T11:16:28;4.37;;;3.60;;
15931;SDS011;8065;49.520;11.284;2022-08-24T11:18:57;4.37;;;3.97;;
15931;SDS011;8065;49.520;11.284;2022-08-24T11:21:32;4.40;;;3.73;;
15931;SDS011;8065;49.520;11.284;2022-08-24T11:24:06;4.17;;;3.87;;
15931;SDS011;8065;49.520;11.284;2022-08-24T11:26:44;4.20;;;3.90;;
15931;SDS011;8065;49.520;11.284;2022-08-24T11:29:15;4.10;;;3.70;;
15931;SDS011;8065;49.520;11.284;2022-08-24T11:31:43;5.90;;;4.17;;
15931;SDS011;8065;49.520;11.284;2022-08-24T11:34:16;5.43;;;3.50;;
15931;SDS011;8065;49.520;11.284;2022-08-24T11:36:44;3.67;;;3.37;;
15931;SDS011;8065;49.520;11.284;2022-08-24T11:39:15;4.20;;;3.90;;
15931;SDS011;8065;49.520;11.284;2022-08-24T11:41:48;5.17;;;3.70;;
15931;SDS011;8065;49.520;11.284;2022-08-24T11:44:23;4.30;;;3.90;;
15931;SDS011;8065;49.520;11.284;2022-08-24T11:47:04;4.73;;;3.70;;
15931;SDS011;8065;49.520;11.284;2022-08-24T11:49:43;4.10;;;3.80;;
15931;SDS011;8065;49.520;11.284;2022-08-24T11:52:18;4.13;;;3.83;;
15931;SDS011;8065;49.520;11.284;2022-08-24T11:55:00;5.33;;;3.83;;
15931;SDS011;8065;49.520;11.284;2022-08-24T11:57:33;4.13;;;3.83;;
15931;SDS011;8065;49.520;11.284;2022-08-24T12:00:08;7.20;;;3.93;;
15931;SDS011;8065;49.520;11.284;2022-08-24T12:02:41;4.00;;;3.70;;
15931;SDS011;8065;49.520;11.284;2022-08-24T12:05:25;4.13;;;3.83;;
15931;SDS011;8065;49.520;11.284;2022-08-24T12:08:07;4.40;;;3.97;;
15931;SDS011;8065;49.520;11.284;2022-08-24T12:10:41;4.57;;;3.57;;
15931;SDS011;8065;49.520;11.284;2022-08-24T12:13:19;4.57;;;4.17;;
15931;SDS011;8065;49.520;11.284;2022-08-24T12:15:59;4.10;;;3.70;;
15931;SDS011;8065;49.520;11.284;2022-08-24T12:18:38;4.90;;;3.97;;
15931;SDS011;8065;49.520;11.284;2022-08-24T12:21:12;3.77;;;3.30;;
15931;SDS011;8065;49.520;11.284;2022-08-24T12:23:44;4.43;;;3.73;;
15931;SDS011;8065;49.520;11.284;2022-08-24T12:26:14;3.67;;;3.33;;
15931;SDS011;8065;49.520;11.284;2022-08-24T12:28:48;3.77;;;3.47;;
15931;SDS011;8065;49.520;11.284;2022-08-24T12:31:18;3.60;;;3.40;;
15931;SDS011;8065;49.520;11.284;2022-08-24T12:33:49;4.53;;;4.00;;
15931;SDS011;8065;49.520;11.284;2022-08-24T12:36:24;3.53;;;3.23;;
15931;SDS011;8065;49.520;11.284;2022-08-24T12:39:00;3.87;;;3.57;;
15931;SDS011;8065;49.520;11.284;2022-08-24T12:41:33;4.33;;;3.93;;
15931;SDS011;8065;49.520;11.284;2022-08-24T12:44:05;4.80;;;3.67;;
15931;SDS011;8065;49.520;11.284;2022-08-24T12:46:36;3.80;;;3.50;;
15931;SDS011;8065;49.520;11.284;2022-08-24T12:49:05;5.27;;;3.77;;
15931;SDS011;8065;49.520;11.284;2022-08-24T12:51:43;4.20;;;3.80;;
15931;SDS011;8065;49.520;11.284;2022-08-24T12:54:28;3.80;;;3.50;;
15931;SDS011;8065;49.520;11.284;2022-08-24T12:57:14;3.90;;;3.60;;
15931;SDS011;8065;49.520;11.284;2022-08-24T13:00:00;4.37;;;3.97;;
15931;SDS011;8065;49.520;11.284;2022-08-24T13:02:32;4.10;;;3.80;;
15931;SDS011;8065;49.520;11.284;2022-08-24T13:05:08;4.13;;;3.40;;
15931;SDS011;8065;49.520;11.284;2022-08-24T13:07:39;3.80;;;3.43;;
15931;SDS011;8065;49.520;11.284;2022-08-24T13:10:10;3.73;;;3.30;;
15931;SDS011;8065;49.520;11.284;2022-08-24T13:12:50;4.27;;;3.87;;
15931;SDS011;8065;49.520;11.284;2022-08-24T13:15:49;5.03;;;3.93;;
15931;SDS011;8065;49.520;11.284;2022-08-24T13:30:21;4.90;;;4.40;;
15931;SDS011;8065;49.520;11.284;2022-08-24T13:32:55;8.33;;;5.03;;
15931;SDS011;8065;49.520;11.284;2022-08-24T13:35:28;5.37;;;4.83;;
15931;SDS011;8065;49.520;11.284;2022-08-24T13:38:24;6.93;;;4.80;;
15931;SDS011;8065;49.520;11.284;2022-08-24T13:41:08;5.43;;;4.93;;
15931;SDS011;8065;49.520;11.284;2022-08-24T13:43:44;5.13;;;4.57;;
15931;SDS011;8065;49.520;11.284;2022-08-24T13:46:20;7.10;;;5.10;;
15931;SDS011;8065;49.520;11.284;2022-08-24T13:48:56;5.43;;;4.90;;
15931;SDS011;8065;49.520;11.284;2022-08-24T13:51:33;6.03;;;4.63;;
15931;SDS011;8065;49.520;11.284;2022-08-24T13:54:10;5.43;;;4.57;;
15931;SDS011;8065;49.520;11.284;2022-08-24T13:56:44;5.33;;;4.67;;
15931;SDS011;8065;49.520;11.284;2022-08-24T14:02:27;5.63;;;5.03;;
15931;SDS011;8065;49.520;11.284;2022-08-24T14:05:00;4.83;;;4.43;;
15931;SDS011;8065;49.520;11.284;2022-08-24T14:07:42;5.80;;;4.83;;
15931;SDS011;8065;49.520;11.284;2022-08-24T14:10:24;5.37;;;4.97;;
15931;SDS011;8065;49.520;11.284;2022-08-24T14:13:13;5.23;;;4.83;;
15931;SDS011;8065;49.520;11.284;2022-08-24T14:15:53;7.73;;;5.10;;
15931;SDS011;8065;49.520;11.284;2022-08-24T14:18:43;5.00;;;4.60;;
15931;SDS011;8065;49.520;11.284;2022-08-24T14:21:21;5.90;;;5.33;;
15931;SDS011;8065;49.520;11.284;2022-08-24T14:23:59;5.60;;;5.10;;
15931;SDS011;8065;49.520;11.284;2022-08-24T14:29:35;5.73;;;5.23;;
15931;SDS011;8065;49.520;11.284;2022-08-24T14:35:18;5.73;;;5.23;;
15931;SDS011;8065;49.520;11.284;2022-08-24T14:40:43;5.70;;;5.20;;
15931;SDS011;8065;49.520;11.284;2022-08-24T14:43:23;5.33;;;4.93;;
15931;SDS011;8065;49.520;11.284;2022-08-24T14:46:02;5.80;;;5.30;;
15931;SDS011;8065;49.520;11.284;2022-08-24T14:48:36;6.10;;;5.50;;
15931;SDS011;8065;49.520;11.284;2022-08-24T14:51:12;4.70;;;4.30;;
15931;SDS011;8065;49.520;11.284;2022-08-24T14:53:56;4.97;;;4.47;;
15931;SDS011;8065;49.520;11.284;2022-08-24T14:56:30;5.10;;;4.37;;
15931;SDS011;8065;49.520;11.284;2022-08-24T14:59:14;4.70;;;4.20;;
15931;SDS011;8065;49.520;11.284;2022-08-24T15:01:56;4.30;;;4.00;;
15931;SDS011;8065;49.520;11.284;2022-08-24T15:04:40;6.97;;;4.63;;
15931;SDS011;8065;49.520;11.284;2022-08-24T15:07:24;7.03;;;4.93;;
15931;SDS011;8065;49.520;11.284;2022-08-24T15:09:53;4.83;;;4.43;;
15931;SDS011;8065;49.520;11.284;2022-08-24T15:12:26;4.80;;;4.40;;
15931;SDS011;8065;49.520;11.284;2022-08-24T15:15:01;5.43;;;4.93;;
15931;SDS011;8065;49.520;11.284;2022-08-24T15:17:38;7.43;;;5.27;;
15931;SDS011;8065;49.520;11.284;2022-08-24T15:20:14;5.50;;;5.00;;
15931;SDS011;8065;49.520;11.284;2022-08-24T15:22:45;5.93;;;4.63;;
15931;SDS011;8065;49.520;11.284;2022-08-24T15:25:18;5.53;;;4.80;;
15931;SDS011;8065;49.520;11.284;2022-08-24T15:27:58;4.83;;;4.40;;
15931;SDS011;8065;49.520;11.284;2022-08-24T15:30:34;4.90;;;4.40;;
15931;SDS011;8065;49.520;11.284;2022-08-24T15:33:04;4.67;;;4.33;;
15931;SDS011;8065;49.520;11.284;2022-08-24T15:35:36;4.90;;;4.43;;
15931;SDS011;8065;49.520;11.284;2022-08-24T15:38:18;5.63;;;4.53;;
15931;SDS011;8065;49.520;11.284;2022-08-24T15:40:46;4.80;;;4.40;;
15931;SDS011;8065;49.520;11.284;2022-08-24T15:43:15;5.43;;;4.83;;
15931;SDS011;8065;49.520;11.284;2022-08-24T15:45:44;4.63;;;4.23;;
15931;SDS011;8065;49.520;11.284;2022-08-24T15:48:13;5.40;;;4.90;;
15931;SDS011;8065;49.520;11.284;2022-08-24T15:50:43;4.73;;;4.33;;